Time;durP1;ratioP1;P1;durP2;ratioP2;P2;SDS_P1;SDS_P2;PMS_P1;PMS_P2;Temp;Humidity;BMP_temperature;BMP_pressure;BME280_temperature;BME280_humidity;BME280_pressure;Samples;Min_cycle;Max_cycle;Signal;HPM_P1;HPM_P2
2022/02/27 00:01:45;;;;;;;25.10;11.10;;;;;;;;;;4991393;28;20352;-60
2022/02/27 00:04:11;;;;;;;24.48;11.57;;;;;;;;;;5010471;28;20704;-61
2022/02/27 00:06:36;;;;;;;30.50;12.13;;;;;;;;;;5009793;28;20420;-61
2022/02/27 00:09:02;;;;;;;25.98;11.85;;;;;;;;;;5010465;28;20443;-61
2022/02/27 00:11:28;;;;;;;22.60;10.27;;;;;;;;;;5010046;28;20375;-60
2022/02/27 00:13:53;;;;;;;26.23;11.27;;;;;;;;;;5009449;28;20351;-62
2022/02/27 00:16:18;;;;;;;27.75;11.73;;;;;;;;;;5009184;28;20446;-61
2022/02/27 00:18:44;;;;;;;27.08;13.40;;;;;;;;;;5009006;28;20315;-61
2022/02/27 00:21:09;;;;;;;35.78;13.90;;;;;;;;;;5009811;28;20322;-60
2022/02/27 00:23:34;;;;;;;30.30;12.75;;;;;;;;;;5009112;28;20435;-61
2022/02/27 00:26:00;;;;;;;29.55;11.57;;;;;;;;;;5008845;28;20025;-61
2022/02/27 00:28:25;;;;;;;35.10;13.65;;;;;;;;;;5009145;28;20381;-61
2022/02/27 00:30:50;;;;;;;32.78;10.82;;;;;;;;;;4991044;28;20416;-61
2022/02/27 00:33:16;;;;;;;29.35;11.73;;;;;;;;;;5009225;28;20507;-60
2022/02/27 00:35:41;;;;;;;32.35;12.90;;;;;;;;;;5008637;28;20386;-60
2022/02/27 00:38:07;;;;;;;32.05;12.02;;;;;;;;;;5008385;28;20506;-60
2022/02/27 00:40:34;;;;;;;33.90;12.05;;;;;;;;;;5008664;28;20340;-61
2022/02/27 00:42:59;;;;;;;34.72;12.20;;;;;;;;;;5010496;28;20032;-61
2022/02/27 00:45:24;;;;;;;45.08;16.10;;;;;;;;;;5008671;28;20514;-61
2022/02/27 00:47:50;;;;;;;41.20;15.20;;;;;;;;;;5008904;28;20514;-61
2022/02/27 00:50:15;;;;;;;48.75;17.83;;;;;;;;;;5009420;28;20289;-61
2022/02/27 00:52:41;;;;;;;45.03;17.45;;;;;;;;;;5010222;28;20093;-62
2022/02/27 00:55:08;;;;;;;64.03;20.13;;;;;;;;;;5008802;28;20371;-61
2022/02/27 00:57:34;;;;;;;58.20;18.77;;;;;;;;;;5008583;28;20344;-60
2022/02/27 00:59:59;;;;;;;44.45;17.98;;;;;;;;;;5006342;28;20402;-60
2022/02/27 01:02:24;;;;;;;50.30;18.00;;;;;;;;;;4980190;28;20408;-61
2022/02/27 01:04:50;;;;;;;54.30;19.30;;;;;;;;;;4988907;28;20410;-61
2022/02/27 01:07:15;;;;;;;48.40;16.92;;;;;;;;;;4990502;28;20044;-61
2022/02/27 01:09:42;;;;;;;49.95;17.92;;;;;;;;;;4990090;28;20381;-60
2022/02/27 01:12:07;;;;;;;48.65;18.42;;;;;;;;;;4970502;28;20484;-61
2022/02/27 01:14:32;;;;;;;58.50;18.25;;;;;;;;;;4990768;28;20445;-61
2022/02/27 01:17:01;;;;;;;48.42;16.20;;;;;;;;;;4988479;28;20028;-61
2022/02/27 01:19:27;;;;;;;60.97;18.05;;;;;;;;;;4988462;28;20521;-60
2022/02/27 01:21:53;;;;;;;55.70;18.27;;;;;;;;;;4988532;28;20110;-61
2022/02/27 01:24:19;;;;;;;50.22;16.48;;;;;;;;;;4988772;28;20456;-61
2022/02/27 01:26:45;;;;;;;58.55;16.90;;;;;;;;;;4988814;28;20412;-61
2022/02/27 01:29:10;;;;;;;53.53;16.65;;;;;;;;;;4989512;28;20029;-60
2022/02/27 01:31:35;;;;;;;52.65;17.55;;;;;;;;;;4988779;28;20321;-61
2022/02/27 01:34:01;;;;;;;46.95;17.15;;;;;;;;;;4988658;28;20422;-61
2022/02/27 01:36:26;;;;;;;46.97;15.25;;;;;;;;;;4989696;28;20064;-61
2022/02/27 01:38:51;;;;;;;40.70;16.08;;;;;;;;;;4988124;28;20395;-60
2022/02/27 01:41:17;;;;;;;53.90;16.48;;;;;;;;;;4988389;28;20514;-61
2022/02/27 01:43:43;;;;;;;44.90;15.93;;;;;;;;;;4990020;28;20405;-61
2022/02/27 01:46:10;;;;;;;46.40;16.42;;;;;;;;;;4988250;28;20396;-61
2022/02/27 01:48:37;;;;;;;43.30;16.42;;;;;;;;;;4988766;28;20459;-61
2022/02/27 01:51:02;;;;;;;47.10;16.23;;;;;;;;;;4992926;28;20119;-61
2022/02/27 01:53:27;;;;;;;44.13;15.82;;;;;;;;;;4993193;28;20561;-61
2022/02/27 01:55:54;;;;;;;46.88;15.45;;;;;;;;;;4992192;28;20340;-61
2022/02/27 01:58:19;;;;;;;38.70;15.38;;;;;;;;;;4991861;28;20420;-62
2022/02/27 02:00:44;;;;;;;41.83;15.65;;;;;;;;;;4993597;28;20478;-62
2022/02/27 02:03:11;;;;;;;38.75;13.30;;;;;;;;;;4992179;28;20337;-61
2022/02/27 02:05:36;;;;;;;48.97;14.88;;;;;;;;;;4992629;28;20612;-61
2022/02/27 02:08:02;;;;;;;37.85;15.80;;;;;;;;;;4991734;28;20443;-61
2022/02/27 02:10:27;;;;;;;40.50;15.20;;;;;;;;;;4991751;28;20090;-62
2022/02/27 02:12:54;;;;;;;46.25;15.18;;;;;;;;;;4992591;28;20363;-61
2022/02/27 02:15:19;;;;;;;40.63;15.13;;;;;;;;;;4991811;28;20360;-66
2022/02/27 02:17:44;;;;;;;38.00;14.75;;;;;;;;;;4991947;28;20025;-62
2022/02/27 02:20:10;;;;;;;37.15;13.30;;;;;;;;;;4992280;28;20386;-62
2022/02/27 02:22:36;;;;;;;41.80;15.35;;;;;;;;;;4974019;28;20502;-61
2022/02/27 02:25:01;;;;;;;40.67;16.45;;;;;;;;;;4991728;28;20052;-61
2022/02/27 02:27:26;;;;;;;44.83;14.95;;;;;;;;;;4991311;28;20429;-62
2022/02/27 02:29:51;;;;;;;40.95;16.10;;;;;;;;;;4991844;28;20373;-61
2022/02/27 02:32:17;;;;;;;34.40;13.63;;;;;;;;;;4991545;28;20025;-62
2022/02/27 02:34:43;;;;;;;42.95;15.32;;;;;;;;;;4991647;28;20395;-61
2022/02/27 02:37:10;;;;;;;42.35;15.82;;;;;;;;;;4991513;28;20505;-62
2022/02/27 02:39:36;;;;;;;32.20;14.27;;;;;;;;;;4990630;28;20551;-61
2022/02/27 02:42:02;;;;;;;40.88;15.15;;;;;;;;;;4800374;28;5001957;-62
2022/02/27 02:44:27;;;;;;;32.47;13.63;;;;;;;;;;4991500;28;20507;-61
2022/02/27 02:46:53;;;;;;;34.17;13.85;;;;;;;;;;4990767;28;20352;-61
2022/02/27 02:49:18;;;;;;;36.28;14.25;;;;;;;;;;4991475;28;20341;-61
2022/02/27 02:51:43;;;;;;;34.95;14.70;;;;;;;;;;4991160;28;20091;-61
2022/02/27 02:54:09;;;;;;;34.95;13.60;;;;;;;;;;4991240;28;20033;-61
2022/02/27 02:56:35;;;;;;;35.25;14.43;;;;;;;;;;4993208;28;20367;-61
2022/02/27 02:59:01;;;;;;;39.72;12.88;;;;;;;;;;4988553;28;20515;-61
2022/02/27 03:01:26;;;;;;;38.45;13.70;;;;;;;;;;4990380;28;20347;-61
2022/02/27 03:03:52;;;;;;;34.70;13.43;;;;;;;;;;4990814;28;20474;-61
2022/02/27 03:06:17;;;;;;;32.15;13.93;;;;;;;;;;4991044;28;20033;-62
2022/02/27 03:08:44;;;;;;;35.08;14.52;;;;;;;;;;4991587;28;20522;-62
2022/02/27 03:11:10;;;;;;;36.60;14.60;;;;;;;;;;4990720;28;20413;-62
2022/02/27 03:13:36;;;;;;;30.75;13.18;;;;;;;;;;4990897;28;20413;-61
2022/02/27 03:16:01;;;;;;;33.22;12.35;;;;;;;;;;4990682;28;20593;-62
2022/02/27 03:18:27;;;;;;;30.17;13.45;;;;;;;;;;4972657;28;20510;-61
2022/02/27 03:20:52;;;;;;;33.42;12.43;;;;;;;;;;4990300;28;20372;-62
2022/02/27 03:23:18;;;;;;;37.00;14.50;;;;;;;;;;4972432;28;20440;-62
2022/02/27 03:25:43;;;;;;;31.40;12.60;;;;;;;;;;4990679;28;20444;-62
2022/02/27 03:28:09;;;;;;;35.78;13.00;;;;;;;;;;4991811;28;20343;-61
2022/02/27 03:30:36;;;;;;;31.30;12.07;;;;;;;;;;4991613;28;20304;-62
2022/02/27 03:33:03;;;;;;;31.15;13.00;;;;;;;;;;4990231;28;20094;-62
2022/02/27 03:35:29;;;;;;;30.90;13.80;;;;;;;;;;4990267;28;20102;-61
2022/02/27 03:37:56;;;;;;;34.08;12.35;;;;;;;;;;4990202;28;20475;-62
2022/02/27 03:40:22;;;;;;;32.22;12.60;;;;;;;;;;4990208;28;20075;-61
2022/02/27 03:42:47;;;;;;;31.35;13.43;;;;;;;;;;4991934;28;20393;-62
2022/02/27 03:45:14;;;;;;;30.35;12.05;;;;;;;;;;4989791;28;20102;-61
2022/02/27 03:47:43;;;;;;;25.52;12.23;;;;;;;;;;4990134;28;20348;-61
2022/02/27 03:50:11;;;;;;;38.00;13.43;;;;;;;;;;4990493;28;20436;-61
2022/02/27 03:52:37;;;;;;;29.17;12.85;;;;;;;;;;4989994;28;20025;-61
2022/02/27 03:55:07;;;;;;;27.85;12.98;;;;;;;;;;4990185;28;20428;-61
2022/02/27 03:57:32;;;;;;;27.95;12.13;;;;;;;;;;4972074;28;20435;-61
2022/02/27 03:59:58;;;;;;;31.73;13.40;;;;;;;;;;4989713;28;20505;-61
2022/02/27 04:02:23;;;;;;;27.83;12.60;;;;;;;;;;4990978;28;20417;-61
2022/02/27 04:04:49;;;;;;;33.92;12.45;;;;;;;;;;4990459;28;20428;-61
2022/02/27 04:07:14;;;;;;;27.50;12.68;;;;;;;;;;4990258;28;20444;-60
2022/02/27 04:09:40;;;;;;;26.38;12.20;;;;;;;;;;4989758;28;20404;-60
2022/02/27 04:12:06;;;;;;;28.40;12.95;;;;;;;;;;4989699;28;20424;-61
2022/02/27 04:14:31;;;;;;;28.27;12.65;;;;;;;;;;4990181;28;20475;-62
2022/02/27 04:16:56;;;;;;;31.85;12.27;;;;;;;;;;4989376;28;20361;-60
2022/02/27 04:19:22;;;;;;;25.70;12.43;;;;;;;;;;4989486;28;20059;-61
2022/02/27 04:21:47;;;;;;;23.80;11.10;;;;;;;;;;4989244;28;20425;-61
2022/02/27 04:24:13;;;;;;;29.48;12.98;;;;;;;;;;4990007;28;20448;-61
2022/02/27 04:26:38;;;;;;;28.67;12.20;;;;;;;;;;4990057;28;20383;-62
2022/02/27 04:29:04;;;;;;;24.10;12.90;;;;;;;;;;4989188;28;20421;-61
2022/02/27 04:31:29;;;;;;;27.48;11.40;;;;;;;;;;4990494;28;20416;-61
2022/02/27 04:33:54;;;;;;;24.02;11.93;;;;;;;;;;4990511;28;20352;-61
2022/02/27 04:36:19;;;;;;;28.50;11.57;;;;;;;;;;4989433;28;20379;-61
2022/02/27 04:38:45;;;;;;;25.77;12.13;;;;;;;;;;4989486;28;20456;-61
2022/02/27 04:41:10;;;;;;;28.52;11.68;;;;;;;;;;4989915;28;20495;-61
2022/02/27 04:43:38;;;;;;;26.45;12.32;;;;;;;;;;4988557;28;20052;-62
2022/02/27 04:46:03;;;;;;;25.40;13.20;;;;;;;;;;4989002;28;20425;-60
2022/02/27 04:48:28;;;;;;;29.05;11.85;;;;;;;;;;4989209;28;20321;-61
2022/02/27 04:50:54;;;;;;;28.70;11.07;;;;;;;;;;4990225;28;20461;-62
2022/02/27 04:53:19;;;;;;;24.67;11.63;;;;;;;;;;4989790;28;20427;-61
2022/02/27 04:55:45;;;;;;;27.77;11.60;;;;;;;;;;4990177;28;20025;-60
2022/02/27 04:58:11;;;;;;;26.70;11.52;;;;;;;;;;4989654;28;20451;-61
2022/02/27 05:00:36;;;;;;;32.13;11.77;;;;;;;;;;4988750;28;20464;-62
2022/02/27 05:03:02;;;;;;;24.17;12.32;;;;;;;;;;4988873;28;20516;-61
2022/02/27 05:05:27;;;;;;;29.63;11.52;;;;;;;;;;4988796;28;20432;-61
2022/02/27 05:07:53;;;;;;;26.90;11.63;;;;;;;;;;4988787;28;20463;-61
2022/02/27 05:10:18;;;;;;;27.50;12.50;;;;;;;;;;4990103;28;20489;-61
2022/02/27 05:12:43;;;;;;;24.38;10.02;;;;;;;;;;4989613;28;20056;-61
2022/02/27 05:15:10;;;;;;;24.00;11.00;;;;;;;;;;4972632;28;20305;-61
2022/02/27 05:17:36;;;;;;;25.63;12.00;;;;;;;;;;4989310;28;20425;-61
2022/02/27 05:20:04;;;;;;;24.33;11.98;;;;;;;;;;4988633;28;20447;-61
2022/02/27 05:22:30;;;;;;;20.33;11.65;;;;;;;;;;4988868;28;20033;-61
2022/02/27 05:24:55;;;;;;;22.63;11.57;;;;;;;;;;4991831;28;20495;-61
2022/02/27 05:27:21;;;;;;;23.95;11.45;;;;;;;;;;4992758;28;20402;-61
2022/02/27 05:29:46;;;;;;;23.50;10.98;;;;;;;;;;4975160;28;20419;-61
2022/02/27 05:32:11;;;;;;;27.90;11.95;;;;;;;;;;4992391;28;20352;-61
2022/02/27 05:34:37;;;;;;;24.35;10.85;;;;;;;;;;4992798;28;20021;-62
2022/02/27 05:37:02;;;;;;;22.10;11.32;;;;;;;;;;4992357;28;20347;-61
2022/02/27 05:39:27;;;;;;;25.73;10.90;;;;;;;;;;4992902;28;20072;-61
2022/02/27 05:41:53;;;;;;;25.42;12.02;;;;;;;;;;4992565;28;20352;-61
2022/02/27 05:44:18;;;;;;;21.95;12.07;;;;;;;;;;4993003;28;20412;-61
2022/02/27 05:46:44;;;;;;;26.77;11.10;;;;;;;;;;4992453;28;20400;-61
2022/02/27 05:49:09;;;;;;;20.00;10.35;;;;;;;;;;4992633;28;20313;-61
2022/02/27 05:51:34;;;;;;;25.15;10.85;;;;;;;;;;4992350;28;20486;-61
2022/02/27 05:53:59;;;;;;;24.30;10.55;;;;;;;;;;4992446;28;20421;-61
2022/02/27 05:56:25;;;;;;;27.13;12.45;;;;;;;;;;4992230;28;20481;-61
2022/02/27 05:58:51;;;;;;;23.40;11.07;;;;;;;;;;4993401;28;20451;-61
2022/02/27 06:01:17;;;;;;;23.25;11.38;;;;;;;;;;4991491;28;20424;-62
2022/02/27 06:03:42;;;;;;;19.35;10.40;;;;;;;;;;4992339;28;20502;-61
2022/02/27 06:06:07;;;;;;;26.02;11.60;;;;;;;;;;4991786;28;20487;-61
2022/02/27 06:08:33;;;;;;;26.27;11.07;;;;;;;;;;4991953;28;20029;-61
2022/02/27 06:10:58;;;;;;;21.00;9.90;;;;;;;;;;4992047;28;20460;-61
2022/02/27 06:13:23;;;;;;;21.83;11.52;;;;;;;;;;4991555;28;20448;-61
2022/02/27 06:15:49;;;;;;;22.20;10.23;;;;;;;;;;4992071;28;20458;-61
2022/02/27 06:18:14;;;;;;;21.10;9.82;;;;;;;;;;4991748;28;20428;-61
2022/02/27 06:20:39;;;;;;;19.95;8.77;;;;;;;;;;4992213;28;20345;-61
2022/02/27 06:23:06;;;;;;;26.13;10.45;;;;;;;;;;4992707;28;20416;-61
2022/02/27 06:25:31;;;;;;;19.42;9.88;;;;;;;;;;4991699;28;20103;-61
2022/02/27 06:27:56;;;;;;;20.90;10.98;;;;;;;;;;4991637;28;20497;-62
2022/02/27 06:30:23;;;;;;;23.33;10.65;;;;;;;;;;4991829;28;20032;-61
2022/02/27 06:32:49;;;;;;;22.15;10.00;;;;;;;;;;4991291;28;20515;-61
2022/02/27 06:35:17;;;;;;;19.05;10.02;;;;;;;;;;4990755;28;20408;-61
2022/02/27 06:37:43;;;;;;;24.42;10.50;;;;;;;;;;4991385;28;20535;-61
2022/02/27 06:40:09;;;;;;;23.83;10.60;;;;;;;;;;4991099;28;20448;-61
2022/02/27 06:42:36;;;;;;;18.67;9.80;;;;;;;;;;4973899;28;20052;-61
2022/02/27 06:45:04;;;;;;;18.98;9.82;;;;;;;;;;4991948;28;20390;-61
2022/02/27 06:47:29;;;;;;;21.98;10.38;;;;;;;;;;4991705;28;20455;-61
2022/02/27 06:49:54;;;;;;;17.95;10.00;;;;;;;;;;4991014;28;20394;-61
2022/02/27 06:52:20;;;;;;;24.55;11.05;;;;;;;;;;4990959;28;20403;-62
2022/02/27 06:54:45;;;;;;;24.42;10.00;;;;;;;;;;4992268;28;20661;-61
2022/02/27 06:57:11;;;;;;;23.70;11.20;;;;;;;;;;4990719;28;20340;-62
2022/02/27 06:59:36;;;;;;;18.83;9.70;;;;;;;;;;4991805;28;20029;-62
2022/02/27 07:02:02;;;;;;;21.25;10.25;;;;;;;;;;4992049;28;20507;-61
2022/02/27 07:04:27;;;;;;;18.40;9.60;;;;;;;;;;4992141;28;20414;-62
2022/02/27 07:06:52;;;;;;;24.55;11.50;;;;;;;;;;4990670;28;20102;-61
2022/02/27 07:09:20;;;;;;;23.98;10.15;;;;;;;;;;4991376;28;20454;-62
2022/02/27 07:11:45;;;;;;;24.77;10.55;;;;;;;;;;4992249;28;20029;-61
2022/02/27 07:14:10;;;;;;;20.10;10.60;;;;;;;;;;4991101;28;20045;-61
2022/02/27 07:16:36;;;;;;;20.23;9.63;;;;;;;;;;4992047;28;20481;-61
2022/02/27 07:19:02;;;;;;;19.27;10.25;;;;;;;;;;4991148;28;20468;-62
2022/02/27 07:21:27;;;;;;;16.90;9.48;;;;;;;;;;4990699;28;20517;-61
2022/02/27 07:23:53;;;;;;;20.13;9.98;;;;;;;;;;4991274;28;20387;-61
2022/02/27 07:26:18;;;;;;;22.05;10.45;;;;;;;;;;4992322;28;20379;-61
2022/02/27 07:28:43;;;;;;;20.10;10.13;;;;;;;;;;4990595;28;20357;-61
2022/02/27 07:31:09;;;;;;;16.05;9.55;;;;;;;;;;4972495;28;20348;-61
2022/02/27 07:33:34;;;;;;;18.23;9.45;;;;;;;;;;4990852;28;20294;-62
2022/02/27 07:35:59;;;;;;;21.30;10.90;;;;;;;;;;4990125;28;20459;-61
2022/02/27 07:38:25;;;;;;;20.55;10.40;;;;;;;;;;4990110;28;20392;-61
2022/02/27 07:40:51;;;;;;;18.65;9.80;;;;;;;;;;4991239;28;20374;-62
2022/02/27 07:43:17;;;;;;;22.23;10.23;;;;;;;;;;4990256;28;20412;-62
2022/02/27 07:45:43;;;;;;;19.35;9.98;;;;;;;;;;4990933;28;20567;-61
2022/02/27 07:48:08;;;;;;;23.50;10.82;;;;;;;;;;4989761;28;20029;-62
2022/02/27 07:50:33;;;;;;;17.77;9.13;;;;;;;;;;4990430;28;20527;-61
2022/02/27 07:53:00;;;;;;;18.42;9.60;;;;;;;;;;4990285;28;20565;-61
2022/02/27 07:55:27;;;;;;;19.90;10.43;;;;;;;;;;4990448;28;20501;-62
2022/02/27 07:57:52;;;;;;;20.10;9.02;;;;;;;;;;4989974;28;20079;-61
2022/02/27 08:00:18;;;;;;;19.58;10.13;;;;;;;;;;4990002;28;20503;-61
2022/02/27 08:02:43;;;;;;;20.55;9.60;;;;;;;;;;4989782;28;20321;-62
2022/02/27 08:05:10;;;;;;;25.70;10.88;;;;;;;;;;4990102;28;20021;-63
2022/02/27 08:07:35;;;;;;;22.17;10.02;;;;;;;;;;4991066;28;20104;-63
2022/02/27 08:10:00;;;;;;;18.50;10.00;;;;;;;;;;4989674;28;20428;-61
2022/02/27 08:12:25;;;;;;;21.98;9.32;;;;;;;;;;4989958;28;20428;-61
2022/02/27 08:14:51;;;;;;;19.20;10.73;;;;;;;;;;4990575;28;20048;-62
2022/02/27 08:17:18;;;;;;;20.25;10.13;;;;;;;;;;4989576;28;20033;-62
2022/02/27 08:19:50;;;;;;;19.65;9.77;;;;;;;;;;4991108;28;20116;-61
2022/02/27 08:22:16;;;;;;;27.15;11.80;;;;;;;;;;4989225;28;20347;-62
2022/02/27 08:24:42;;;;;;;29.17;11.75;;;;;;;;;;4989241;28;20395;-62
2022/02/27 08:27:07;;;;;;;24.52;10.75;;;;;;;;;;4989621;28;20356;-62
2022/02/27 08:29:33;;;;;;;24.17;11.60;;;;;;;;;;4989092;28;20506;-62
2022/02/27 08:31:58;;;;;;;29.42;12.27;;;;;;;;;;4990036;28;20335;-61
2022/02/27 08:34:27;;;;;;;32.58;12.07;;;;;;;;;;4989451;28;20427;-62
2022/02/27 08:36:53;;;;;;;32.42;11.77;;;;;;;;;;4990194;28;20092;-62
2022/02/27 08:39:18;;;;;;;32.15;11.48;;;;;;;;;;4989365;28;20125;-62
2022/02/27 08:41:43;;;;;;;31.48;11.10;;;;;;;;;;4989412;28;20499;-62
2022/02/27 08:44:09;;;;;;;33.42;12.95;;;;;;;;;;4989405;28;20432;-61
2022/02/27 08:46:34;;;;;;;36.65;12.73;;;;;;;;;;4989457;28;20496;-62
2022/02/27 08:48:59;;;;;;;32.42;12.10;;;;;;;;;;4989115;28;20379;-62
2022/02/27 08:51:26;;;;;;;29.10;12.45;;;;;;;;;;4989165;28;20094;-62
2022/02/27 08:53:51;;;;;;;38.13;12.45;;;;;;;;;;4988935;28;20352;-62
2022/02/27 08:56:17;;;;;;;36.40;12.27;;;;;;;;;;4988772;28;20325;-62
2022/02/27 08:58:42;;;;;;;30.17;11.65;;;;;;;;;;4988538;28;20348;-62
2022/02/27 09:01:07;;;;;;;36.58;13.23;;;;;;;;;;4989530;28;20462;-62
2022/02/27 09:03:33;;;;;;;40.42;12.48;;;;;;;;;;4988909;28;20432;-62
2022/02/27 09:05:58;;;;;;;45.20;13.23;;;;;;;;;;4989234;28;20464;-62
2022/02/27 09:08:23;;;;;;;37.47;13.05;;;;;;;;;;4989098;28;20425;-62
2022/02/27 09:10:49;;;;;;;40.60;13.55;;;;;;;;;;4988611;28;20125;-63
2022/02/27 09:13:14;;;;;;;35.10;12.32;;;;;;;;;;4989244;28;20407;-62
2022/02/27 09:15:39;;;;;;;42.40;14.13;;;;;;;;;;4988642;28;20358;-62
2022/02/27 09:18:05;;;;;;;40.90;12.27;;;;;;;;;;4990455;28;20347;-62
2022/02/27 09:20:30;;;;;;;42.00;12.85;;;;;;;;;;4988469;28;20463;-62
2022/02/27 09:22:55;;;;;;;46.80;11.20;;;;;;;;;;4988227;28;20484;-61
2022/02/27 09:25:21;;;;;;;37.55;12.02;;;;;;;;;;4988835;28;20340;-62
2022/02/27 09:27:46;;;;;;;39.78;13.75;;;;;;;;;;4988410;28;20310;-63
2022/02/27 09:30:12;;;;;;;39.45;11.73;;;;;;;;;;4988727;28;20406;-62
2022/02/27 09:32:38;;;;;;;35.03;10.77;;;;;;;;;;4989413;28;20025;-62
2022/02/27 09:35:06;;;;;;;41.22;12.75;;;;;;;;;;4988429;28;20056;-62
2022/02/27 09:37:31;;;;;;;45.20;14.15;;;;;;;;;;4988437;28;20386;-62
2022/02/27 09:39:58;;;;;;;42.60;11.98;;;;;;;;;;4988641;28;20344;-62
2022/02/27 09:42:29;;;;;;;37.05;11.88;;;;;;;;;;4988244;28;20332;-62
2022/02/27 09:44:54;;;;;;;39.75;12.05;;;;;;;;;;4988985;28;20435;-62
2022/02/27 09:47:20;;;;;;;33.03;9.65;;;;;;;;;;4988124;28;20471;-63
2022/02/27 09:49:48;;;;;;;37.95;10.48;;;;;;;;;;4970550;28;20372;-62
2022/02/27 09:52:17;;;;;;;32.70;10.25;;;;;;;;;;4967264;28;20503;-62
2022/02/27 09:54:43;;;;;;;33.42;10.75;;;;;;;;;;4981834;28;20349;-62
2022/02/27 09:57:17;;;;;;;32.70;10.48;;;;;;;;;;4968918;28;20100;-62
2022/02/27 09:59:42;;;;;;;30.20;10.18;;;;;;;;;;4968548;28;20110;-62
2022/02/27 10:02:07;;;;;;;35.22;9.90;;;;;;;;;;4969533;28;20029;-62
2022/02/27 10:04:35;;;;;;;35.78;10.98;;;;;;;;;;4968757;28;20340;-62
2022/02/27 10:07:00;;;;;;;27.63;9.98;;;;;;;;;;4968344;28;20433;-62
2022/02/27 10:09:26;;;;;;;28.10;9.57;;;;;;;;;;4969014;28;20446;-62
2022/02/27 10:11:52;;;;;;;32.92;9.70;;;;;;;;;;4972236;28;20341;-62
2022/02/27 10:14:24;;;;;;;33.25;10.10;;;;;;;;;;4972001;28;20413;-62
2022/02/27 10:16:50;;;;;;;32.03;10.63;;;;;;;;;;4954763;28;20052;-62
2022/02/27 10:19:16;;;;;;;30.20;9.50;;;;;;;;;;4971949;28;20409;-62
2022/02/27 10:21:43;;;;;;;23.67;8.10;;;;;;;;;;4971459;28;20432;-62
2022/02/27 10:24:14;;;;;;;24.10;8.35;;;;;;;;;;4972337;28;20483;-62
2022/02/27 10:26:42;;;;;;;23.77;9.45;;;;;;;;;;4973169;28;20414;-62
2022/02/27 10:29:18;;;;;;;23.05;9.02;;;;;;;;;;4972416;28;20305;-62
2022/02/27 10:31:51;;;;;;;24.58;8.05;;;;;;;;;;4971817;28;20368;-62
2022/02/27 10:34:21;;;;;;;29.75;8.00;;;;;;;;;;4971642;28;20401;-62
2022/02/27 10:37:03;;;;;;;22.13;7.13;;;;;;;;;;4971615;28;20453;-62
2022/02/27 10:39:43;;;;;;;20.17;7.20;;;;;;;;;;4971283;28;20346;-62
2022/02/27 10:42:22;;;;;;;22.30;7.93;;;;;;;;;;4971975;28;20352;-62
2022/02/27 10:44:56;;;;;;;19.65;7.80;;;;;;;;;;4971694;28;20419;-62
2022/02/27 10:47:21;;;;;;;21.33;7.38;;;;;;;;;;4971805;28;20088;-62
2022/02/27 10:49:48;;;;;;;18.90;7.57;;;;;;;;;;4971269;28;20037;-62
2022/02/27 10:52:18;;;;;;;20.30;7.40;;;;;;;;;;4971440;28;20421;-62
2022/02/27 10:54:58;;;;;;;20.13;7.07;;;;;;;;;;4971498;28;20482;-62
2022/02/27 10:57:31;;;;;;;23.42;7.00;;;;;;;;;;4971476;28;20432;-62
2022/02/27 11:00:06;;;;;;;17.75;6.97;;;;;;;;;;4971752;28;20391;-62
2022/02/27 11:02:32;;;;;;;20.55;6.68;;;;;;;;;;4972379;28;20083;-62
2022/02/27 11:04:58;;;;;;;20.40;6.25;;;;;;;;;;4972395;28;20433;-62
2022/02/27 11:07:23;;;;;;;18.90;7.30;;;;;;;;;;4985520;28;20455;-62
2022/02/27 11:09:49;;;;;;;18.50;6.57;;;;;;;;;;4970076;28;20425;-62
2022/02/27 11:12:15;;;;;;;18.35;7.00;;;;;;;;;;4970920;28;20421;-62
2022/02/27 11:14:42;;;;;;;20.73;6.55;;;;;;;;;;4972848;28;20491;-62
2022/02/27 11:17:09;;;;;;;18.60;6.95;;;;;;;;;;4971011;28;20564;-62
2022/02/27 11:19:35;;;;;;;18.15;6.63;;;;;;;;;;4970763;28;20345;-63
2022/02/27 11:22:00;;;;;;;25.77;5.97;;;;;;;;;;4971203;28;20313;-63
2022/02/27 11:24:25;;;;;;;22.35;6.43;;;;;;;;;;4970910;28;20468;-62
2022/02/27 11:26:51;;;;;;;18.65;6.32;;;;;;;;;;4970719;28;20138;-62
2022/02/27 11:29:17;;;;;;;14.20;6.05;;;;;;;;;;4970855;28;20352;-62
2022/02/27 11:31:43;;;;;;;20.10;5.93;;;;;;;;;;4970791;28;20352;-62
2022/02/27 11:34:15;;;;;;;12.40;5.32;;;;;;;;;;4971064;28;20033;-63
2022/02/27 11:36:41;;;;;;;20.73;6.18;;;;;;;;;;4970756;28;20441;-62
2022/02/27 11:40:27;;;;;;;12.88;4.72;;;;;;;;;;4970105;28;20349;-62
2022/02/27 11:41:52;;;;;;;16.02;5.18;;;;;;;;;;4970937;28;20111;-62
2022/02/27 11:44:18;;;;;;;13.00;5.65;;;;;;;;;;4970631;28;20453;-62
2022/02/27 11:46:45;;;;;;;14.63;5.63;;;;;;;;;;4970445;28;20440;-62
2022/02/27 11:49:15;;;;;;;11.93;5.05;;;;;;;;;;4970499;28;20433;-62
2022/02/27 11:51:50;;;;;;;14.40;5.47;;;;;;;;;;4969486;28;20306;-62
2022/02/27 11:54:21;;;;;;;12.02;5.07;;;;;;;;;;4970684;28;20475;-62
2022/02/27 11:57:08;;;;;;;14.65;4.80;;;;;;;;;;4969983;28;20357;-62
2022/02/27 11:59:50;;;;;;;18.83;5.50;;;;;;;;;;4970256;28;20444;-62
2022/02/27 12:02:40;;;;;;;12.85;4.57;;;;;;;;;;4970379;28;20372;-62
2022/02/27 12:05:17;;;;;;;16.70;5.03;;;;;;;;;;4970012;28;20659;-62
2022/02/27 12:07:58;;;;;;;11.90;4.40;;;;;;;;;;4970638;28;20048;-62
2022/02/27 12:10:38;;;;;;;11.10;4.78;;;;;;;;;;4969979;28;20341;-62
2022/02/27 12:13:19;;;;;;;12.07;5.22;;;;;;;;;;4970086;28;20502;-62
2022/02/27 12:15:45;;;;;;;10.18;4.78;;;;;;;;;;4969829;28;20475;-62
2022/02/27 12:18:16;;;;;;;14.50;5.43;;;;;;;;;;4970452;28;20421;-62
2022/02/27 12:20:50;;;;;;;10.90;4.22;;;;;;;;;;4970052;28;20368;-62
2022/02/27 12:23:27;;;;;;;15.70;5.40;;;;;;;;;;4970181;28;20459;-62
2022/02/27 12:25:52;;;;;;;17.50;5.45;;;;;;;;;;4969907;28;20484;-62
2022/02/27 12:28:51;;;;;;;11.10;4.70;;;;;;;;;;4970242;28;20426;-62
2022/02/27 12:31:35;;;;;;;13.25;4.80;;;;;;;;;;4970199;28;20033;-62
2022/02/27 12:34:12;;;;;;;7.18;3.83;;;;;;;;;;4968953;28;20480;-62
2022/02/27 12:36:38;;;;;;;9.07;4.00;;;;;;;;;;4970507;28;20437;-62
2022/02/27 12:39:05;;;;;;;9.50;3.95;;;;;;;;;;4969203;28;20346;-62
2022/02/27 12:41:33;;;;;;;13.50;4.55;;;;;;;;;;4968148;28;20349;-62
2022/02/27 12:43:58;;;;;;;10.98;4.72;;;;;;;;;;4969054;28;20345;-64
2022/02/27 12:46:26;;;;;;;12.50;3.83;;;;;;;;;;4970293;28;20368;-62
2022/02/27 12:51:39;;;;;;;8.95;4.10;;;;;;;;;;4970401;28;20348;-62
2022/02/27 12:54:15;;;;;;;;;;;;;;;;;;4970081;28;20380;-62
2022/02/27 12:56:41;;;;;;;10.50;4.65;;;;;;;;;;4969261;28;20401;-62
2022/02/27 12:59:07;;;;;;;12.25;4.25;;;;;;;;;;4969472;28;20436;-62
2022/02/27 13:01:35;;;;;;;9.45;4.53;;;;;;;;;;4968876;28;20452;-63
2022/02/27 13:04:00;;;;;;;11.00;4.50;;;;;;;;;;4969237;28;20175;-62
2022/02/27 13:06:25;;;;;;;9.50;3.95;;;;;;;;;;4969293;28;20025;-62
2022/02/27 13:08:51;;;;;;;9.05;3.40;;;;;;;;;;4969876;28;20337;-62
2022/02/27 13:11:39;;;;;;;9.40;4.03;;;;;;;;;;4969195;28;20486;-62
2022/02/27 13:14:05;;;;;;;10.68;4.30;;;;;;;;;;4969084;28;20445;-62
2022/02/27 13:16:31;;;;;;;12.40;4.25;;;;;;;;;;4969181;28;20387;-62
2022/02/27 13:18:57;;;;;;;8.60;3.92;;;;;;;;;;4968886;28;20420;-62
2022/02/27 13:21:23;;;;;;;9.48;3.97;;;;;;;;;;4969759;28;20033;-62
2022/02/27 13:23:55;;;;;;;10.00;3.90;;;;;;;;;;4968868;28;20048;-62
2022/02/27 13:26:20;;;;;;;12.05;4.22;;;;;;;;;;4969078;28;20116;-62
2022/02/27 13:28:57;;;;;;;14.95;4.47;;;;;;;;;;4969158;28;20486;-62
2022/02/27 13:31:23;;;;;;;9.45;4.38;;;;;;;;;;4969393;28;20383;-62
2022/02/27 13:33:50;;;;;;;6.47;3.50;;;;;;;;;;4968782;28;20453;-62
2022/02/27 13:36:16;;;;;;;11.95;3.95;;;;;;;;;;4969255;28;20425;-62
2022/02/27 13:38:42;;;;;;;7.05;3.42;;;;;;;;;;4968871;28;20372;-62
2022/02/27 13:41:07;;;;;;;6.18;3.28;;;;;;;;;;4968865;28;20403;-62
2022/02/27 13:43:39;;;;;;;9.07;3.58;;;;;;;;;;4969039;28;20435;-63
2022/02/27 13:46:06;;;;;;;7.90;3.00;;;;;;;;;;4973228;28;20406;-62
2022/02/27 13:48:33;;;;;;;11.88;3.97;;;;;;;;;;4973786;28;20333;-62
2022/02/27 13:51:00;;;;;;;7.65;3.40;;;;;;;;;;4972905;28;20316;-62
2022/02/27 13:53:30;;;;;;;9.05;3.22;;;;;;;;;;4972767;28;20483;-62
2022/02/27 13:56:07;;;;;;;8.32;3.67;;;;;;;;;;4973453;28;20416;-62
2022/02/27 13:58:32;;;;;;;9.57;3.97;;;;;;;;;;4973432;28;20399;-65
2022/02/27 14:01:00;;;;;;;10.63;4.20;;;;;;;;;;4972445;28;20468;-62
2022/02/27 14:03:36;;;;;;;11.00;4.45;;;;;;;;;;4972689;28;20330;-62
2022/02/27 14:06:16;;;;;;;9.52;3.92;;;;;;;;;;4972468;28;20135;-62
2022/02/27 14:08:43;;;;;;;12.23;4.57;;;;;;;;;;4971895;28;20325;-63
2022/02/27 14:11:10;;;;;;;9.13;4.38;;;;;;;;;;4973620;28;20030;-62
2022/02/27 14:13:41;;;;;;;15.50;4.78;;;;;;;;;;4972358;28;20329;-62
2022/02/27 14:16:07;;;;;;;8.52;4.70;;;;;;;;;;4972557;28;20295;-62
2022/02/27 14:18:36;;;;;;;14.90;4.95;;;;;;;;;;4972900;28;20333;-62
2022/02/27 14:21:25;;;;;;;;;;;;;;;;;;4972650;28;20033;-62
2022/02/27 14:24:07;;;;;;;10.40;4.93;;;;;;;;;;4972581;28;20292;-62
2022/02/27 14:26:43;;;;;;;9.55;4.32;;;;;;;;;;4972469;28;20318;-63